Time;durP1;ratioP1;P1;durP2;ratioP2;P2;SDS_P1;SDS_P2;PMS_P1;PMS_P2;Temp;Humidity;BMP_temperature;BMP_pressure;BME280_temperature;BME280_humidity;BME280_pressure;Samples;Min_cycle;Max_cycle;Signal;HPM_P1;HPM_P2
2023/12/07 00:00:38;;;;;;;547.53;111.45;;;;;;;-144.73;100.00;54736.13;4962058;28;20043;-77
2023/12/07 00:03:06;;;;;;;452.92;96.75;;;;;;;-144.73;100.00;54715.59;4960172;28;20030;-77
2023/12/07 00:05:32;;;;;;;512.20;104.93;;;;;;;-144.73;100.00;54754.59;4959960;28;20043;-76
2023/12/07 00:07:58;;;;;;;551.00;109.90;;;;;;;-144.73;100.00;54736.13;4965031;28;20022;-77
2023/12/07 00:10:23;;;;;;;522.17;103.82;;;;;;;-144.73;100.00;54756.66;4958146;28;20065;-77
2023/12/07 00:12:48;;;;;;;564.20;110.78;;;;;;;-144.73;100.00;54711.47;4959547;28;20049;-75
2023/12/07 00:15:16;;;;;;;467.25;96.88;;;;;;;-144.73;100.00;54756.66;4953933;28;20127;-75
2023/12/07 00:17:42;;;;;;;545.92;106.38;;;;;;;-144.73;100.00;54709.44;4958878;28;20027;-75
2023/12/07 00:20:08;;;;;;;461.67;96.20;;;;;;;-144.73;100.00;54684.78;4961473;28;20042;-75
2023/12/07 00:22:33;;;;;;;484.17;98.97;;;;;;;-144.73;100.00;54711.47;4956785;28;20046;-74
2023/12/07 00:24:59;;;;;;;462.13;98.05;;;;;;;-144.73;100.00;54715.59;4963235;28;20042;-75
2023/12/07 00:27:24;;;;;;;436.42;91.75;;;;;;;-144.73;100.00;54732.00;4959098;28;20050;-75
2023/12/07 00:29:50;;;;;;;434.38;98.43;;;;;;;-144.73;100.00;54703.28;4956334;28;20039;-75
2023/12/07 00:32:15;;;;;;;415.73;88.95;;;;;;;-144.73;100.00;54744.31;4965279;28;20117;-75
2023/12/07 00:34:40;;;;;;;392.83;89.18;;;;;;;-144.73;100.00;54707.38;4956685;28;20114;-75
2023/12/07 00:37:07;;;;;;;484.15;102.88;;;;;;;-144.73;100.00;54744.31;4963434;28;20022;-75
2023/12/07 00:39:32;;;;;;;469.45;100.55;;;;;;;-144.73;100.00;54707.38;4961061;28;20031;-75
2023/12/07 00:42:00;;;;;;;483.83;99.03;;;;;;;-144.73;100.00;54768.97;4957391;28;20587;-75
2023/12/07 00:44:26;;;;;;;511.63;106.88;;;;;;;-144.73;100.00;54723.81;4958038;28;20042;-75
2023/12/07 00:46:51;;;;;;;440.80;95.43;;;;;;;-144.73;100.00;54711.47;4960698;28;20035;-75
2023/12/07 00:49:17;;;;;;;427.23;97.13;;;;;;;-144.73;100.00;54713.53;4959643;28;20023;-75
2023/12/07 00:51:42;;;;;;;480.65;101.22;;;;;;;-144.73;100.00;54752.53;4956670;28;20039;-75
2023/12/07 00:54:08;;;;;;;455.73;104.35;;;;;;;-144.73;100.00;54695.06;4960090;28;20022;-75
2023/12/07 00:56:34;;;;;;;542.78;114.63;;;;;;;-144.73;100.00;54715.59;4958859;28;20042;-75
2023/12/07 00:58:59;;;;;;;446.60;103.07;;;;;;;-144.73;100.00;54748.44;4961413;28;20034;-75
2023/12/07 01:01:24;;;;;;;534.45;113.40;;;;;;;-144.73;100.00;54717.66;4958995;28;20043;-75
2023/12/07 01:03:50;;;;;;;550.13;112.57;;;;;;;-144.73;100.00;54760.75;4953166;28;20064;-75
2023/12/07 01:06:16;;;;;;;625.97;120.72;;;;;;;-144.73;100.00;54699.16;4956600;28;20035;-75
2023/12/07 01:08:42;;;;;;;629.22;128.45;;;;;;;-144.73;100.00;54740.22;4953549;28;20037;-75
2023/12/07 01:11:07;;;;;;;521.33;112.30;;;;;;;-144.73;100.00;54670.44;4959994;28;20035;-75
2023/12/07 01:13:33;;;;;;;577.38;114.13;;;;;;;-144.73;100.00;54740.22;4956520;28;20051;-75
2023/12/07 01:15:58;;;;;;;459.67;97.85;;;;;;;-144.73;100.00;54727.91;4959635;28;20047;-75
2023/12/07 01:18:23;;;;;;;485.40;104.07;;;;;;;-144.73;100.00;54740.22;4963026;28;20046;-76
2023/12/07 01:20:49;;;;;;;506.23;110.95;;;;;;;-144.73;100.00;54740.22;4957436;28;20041;-75
2023/12/07 01:23:14;;;;;;;439.77;101.45;;;;;;;-144.73;100.00;54707.38;4969867;28;20022;-75
2023/12/07 01:25:40;;;;;;;437.10;104.10;;;;;;;-144.73;100.00;54744.31;4958042;28;20522;-76
2023/12/07 01:28:06;;;;;;;445.15;104.13;;;;;;;-144.73;100.00;54719.69;4964905;28;20076;-76
2023/12/07 01:30:31;;;;;;;427.70;102.82;;;;;;;-144.73;100.00;54690.97;4954744;28;20035;-76
2023/12/07 01:32:57;;;;;;;424.77;103.45;;;;;;;-144.73;100.00;54740.22;4962246;28;20051;-75
2023/12/07 01:35:22;;;;;;;420.23;102.63;;;;;;;-144.73;100.00;54736.13;4964487;28;20043;-76
2023/12/07 01:37:47;;;;;;;402.35;100.25;;;;;;;-144.73;100.00;54744.31;4960131;28;20019;-75
2023/12/07 01:40:14;;;;;;;375.75;94.13;;;;;;;-144.73;100.00;54732.00;4965429;28;20063;-75
2023/12/07 01:42:40;;;;;;;426.10;105.05;;;;;;;-144.73;100.00;54773.06;4956366;28;20027;-75
2023/12/07 01:45:06;;;;;;;391.15;96.13;;;;;;;-144.73;100.00;54707.38;4965055;28;20049;-76
2023/12/07 01:47:33;;;;;;;353.90;96.47;;;;;;;-144.73;100.00;54758.69;4965193;28;20023;-76
2023/12/07 01:50:00;;;;;;;400.23;100.70;;;;;;;-144.73;100.00;54744.31;4960391;28;20039;-75
2023/12/07 01:52:28;;;;;;;351.38;90.68;;;;;;;-144.73;100.00;54719.69;4960922;28;20031;-76
2023/12/07 01:54:54;;;;;;;345.25;88.85;;;;;;;-144.73;100.00;54719.69;4966309;28;20058;-76
2023/12/07 01:57:20;;;;;;;357.73;90.20;;;;;;;-144.73;100.00;54760.75;4961527;28;20050;-76
2023/12/07 01:59:45;;;;;;;350.25;91.43;;;;;;;-144.73;100.00;54719.69;4964921;28;20031;-76
2023/12/07 02:02:11;;;;;;;397.50;99.97;;;;;;;-144.73;100.00;54727.91;4973733;28;20027;-76
2023/12/07 02:04:37;;;;;;;370.95;97.70;;;;;;;-144.73;100.00;54715.59;4959476;28;20273;-76
2023/12/07 02:07:04;;;;;;;327.80;88.28;;;;;;;-144.73;100.00;54715.59;4958274;28;20038;-76
2023/12/07 02:09:29;;;;;;;302.33;84.80;;;;;;;-144.73;100.00;54781.28;4964865;28;20050;-75
2023/12/07 02:11:55;;;;;;;320.00;88.20;;;;;;;-144.73;100.00;54715.59;4964715;28;20061;-76
2023/12/07 02:14:21;;;;;;;324.17;89.63;;;;;;;-144.73;100.00;54748.44;4968066;28;20035;-76
2023/12/07 02:16:54;;;;;;;282.98;80.43;;;;;;;-144.73;100.00;54711.47;4963902;28;20057;-77
2023/12/07 02:19:35;;;;;;;293.75;82.00;;;;;;;-144.73;100.00;54736.13;4954192;28;20035;-76
2023/12/07 02:22:05;;;;;;;297.95;81.78;;;;;;;-144.73;100.00;54756.66;4958336;28;20109;-76
2023/12/07 02:24:33;;;;;;;320.00;90.03;;;;;;;-144.73;100.00;54760.75;4958930;28;20027;-76
2023/12/07 02:26:59;;;;;;;332.80;90.78;;;;;;;-144.73;100.00;54721.75;4957854;28;20023;-76
2023/12/07 02:29:24;;;;;;;301.70;86.72;;;;;;;-144.73;100.00;54740.22;4960622;28;20034;-75
2023/12/07 02:31:50;;;;;;;324.25;90.85;;;;;;;-144.73;100.00;54754.59;4955848;28;20040;-76
2023/12/07 02:34:15;;;;;;;324.40;84.82;;;;;;;-144.73;100.00;54678.63;4965775;28;20033;-76
2023/12/07 02:36:43;;;;;;;350.13;92.43;;;;;;;-144.73;100.00;54752.53;4960516;28;20039;-76
2023/12/07 02:39:12;;;;;;;386.67;92.75;;;;;;;-144.73;100.00;54736.13;4960126;28;20031;-76
2023/12/07 02:41:39;;;;;;;359.33;86.00;;;;;;;-144.73;100.00;54715.59;4960388;28;20070;-76
2023/12/07 02:44:05;;;;;;;432.15;99.13;;;;;;;-144.73;100.00;54711.47;4963310;28;20023;-76
2023/12/07 02:46:30;;;;;;;426.25;95.97;;;;;;;-144.73;100.00;54719.69;4960432;28;20037;-76
2023/12/07 02:48:57;;;;;;;420.90;93.60;;;;;;;-144.73;100.00;54711.47;4966258;28;20034;-76
2023/12/07 02:51:22;;;;;;;433.05;96.63;;;;;;;-144.73;100.00;54715.59;4962285;28;20038;-75
2023/12/07 02:53:48;;;;;;;423.73;97.32;;;;;;;-144.73;100.00;54727.91;4963697;28;20026;-74
2023/12/07 02:56:13;;;;;;;460.60;101.72;;;;;;;-144.73;100.00;54715.59;4959705;28;20079;-74
2023/12/07 02:58:38;;;;;;;375.20;91.18;;;;;;;-144.73;100.00;54723.81;4966767;28;20046;-74
2023/12/07 03:01:04;;;;;;;407.48;95.47;;;;;;;-144.73;100.00;54711.47;4957396;28;20510;-74
2023/12/07 03:03:29;;;;;;;421.52;94.63;;;;;;;-144.73;100.00;54701.22;4960378;28;20035;-74
2023/12/07 03:05:55;;;;;;;402.63;93.53;;;;;;;-144.73;100.00;54715.59;4957838;28;20043;-76
2023/12/07 03:08:20;;;;;;;433.35;98.82;;;;;;;-144.73;100.00;54727.91;4965801;28;20049;-74
2023/12/07 03:10:46;;;;;;;491.58;105.88;;;;;;;-144.73;100.00;54695.06;4960076;28;20043;-75
2023/12/07 03:13:23;;;;;;;411.98;95.82;;;;;;;-144.73;100.00;54727.91;4968454;28;20046;-76
2023/12/07 03:15:49;;;;;;;383.80;92.18;;;;;;;-144.73;100.00;54715.59;4958060;28;20059;-76
2023/12/07 03:18:17;;;;;;;337.65;86.68;;;;;;;-144.73;100.00;54711.47;4959971;28;20035;-76
2023/12/07 03:20:44;;;;;;;366.15;86.43;;;;;;;-144.73;100.00;54727.91;4965037;28;20046;-77
2023/12/07 03:23:35;;;;;;;344.67;81.80;;;;;;;-144.73;100.00;54748.44;4966531;28;20126;-75
2023/12/07 03:26:01;;;;;;;353.42;88.32;;;;;;;-144.73;100.00;54727.91;4956280;28;20106;-75
2023/12/07 03:28:26;;;;;;;377.98;90.88;;;;;;;-144.73;100.00;54752.53;4960446;28;20034;-75
2023/12/07 03:30:51;;;;;;;369.60;92.82;;;;;;;-144.73;100.00;54732.00;4952078;28;20043;-75
2023/12/07 03:33:17;;;;;;;371.95;90.72;;;;;;;-144.73;100.00;54715.59;4953301;28;20042;-74
2023/12/07 03:35:45;;;;;;;337.30;90.63;;;;;;;-144.73;100.00;54725.84;4962581;28;20058;-74
2023/12/07 03:38:10;;;;;;;442.17;104.97;;;;;;;-144.73;100.00;54740.22;4957979;28;20035;-75
2023/12/07 03:40:36;;;;;;;464.52;108.57;;;;;;;-144.73;100.00;54701.22;4964037;28;20383;-75
2023/12/07 03:43:19;;;;;;;397.02;98.57;;;;;;;-144.73;100.00;54711.47;4961249;28;20042;-74
2023/12/07 03:45:44;;;;;;;402.08;99.55;;;;;;;-144.73;100.00;54732.00;4956175;28;20039;-75
2023/12/07 03:48:10;;;;;;;411.30;102.00;;;;;;;-144.73;100.00;54713.53;4960089;28;20086;-75
2023/12/07 03:50:35;;;;;;;390.13;95.93;;;;;;;-144.73;100.00;54756.66;4959652;28;20039;-75
2023/12/07 03:53:01;;;;;;;423.98;101.80;;;;;;;-144.73;100.00;54719.69;4959523;28;20057;-75
2023/12/07 03:55:29;;;;;;;391.10;97.95;;;;;;;-144.73;100.00;54695.06;4959546;28;20039;-75
2023/12/07 03:57:57;;;;;;;408.13;100.55;;;;;;;-144.73;100.00;54736.13;4959482;28;20031;-75
2023/12/07 04:00:26;;;;;;;364.50;91.55;;;;;;;-144.73;100.00;54695.06;4963347;28;20047;-75
2023/12/07 04:02:51;;;;;;;408.88;98.65;;;;;;;-144.73;100.00;54723.81;4957040;28;20027;-75
2023/12/07 04:05:19;;;;;;;354.65;95.72;;;;;;;-144.73;100.00;54740.22;4954788;28;20039;-75
2023/12/07 04:07:45;;;;;;;318.25;87.82;;;;;;;-144.73;100.00;54740.22;4962295;28;20390;-75
2023/12/07 04:10:10;;;;;;;376.63;95.07;;;;;;;-144.73;100.00;54756.66;4958450;28;20031;-75
2023/12/07 04:12:36;;;;;;;353.88;96.30;;;;;;;-144.73;100.00;54723.81;4959663;28;20024;-75
2023/12/07 04:15:01;;;;;;;327.90;90.80;;;;;;;-144.73;100.00;54727.91;4959394;28;20045;-75
2023/12/07 04:17:26;;;;;;;321.45;87.85;;;;;;;-144.73;100.00;54723.81;4963017;28;20033;-75
2023/12/07 04:19:52;;;;;;;361.73;97.18;;;;;;;-144.73;100.00;54736.13;4964179;28;20042;-75
2023/12/07 04:22:17;;;;;;;347.23;96.47;;;;;;;-144.73;100.00;54719.69;4959270;28;20031;-75
2023/12/07 04:24:43;;;;;;;331.08;95.00;;;;;;;-144.73;100.00;54719.69;4959932;28;20081;-75
2023/12/07 04:27:11;;;;;;;352.85;95.60;;;;;;;-144.73;100.00;54752.53;4961558;28;20166;-75
2023/12/07 04:29:39;;;;;;;305.85;89.38;;;;;;;-144.73;100.00;54736.13;4959502;28;20035;-75
2023/12/07 04:32:07;;;;;;;305.70;90.55;;;;;;;-144.73;100.00;54701.22;4951184;28;20034;-75
2023/12/07 04:34:33;;;;;;;282.83;86.00;;;;;;;-144.73;100.00;54686.84;4959282;28;20030;-75
2023/12/07 04:36:59;;;;;;;329.40;94.13;;;;;;;-144.73;100.00;54744.31;4956511;28;20031;-75
2023/12/07 04:39:24;;;;;;;345.80;93.53;;;;;;;-144.73;100.00;54723.81;4964310;28;20040;-75
2023/12/07 04:41:49;;;;;;;339.92;93.53;;;;;;;-144.73;100.00;54727.91;4956122;28;20035;-75
2023/12/07 04:44:15;;;;;;;296.83;90.88;;;;;;;-144.73;100.00;54736.13;4963944;28;20037;-75
2023/12/07 04:46:43;;;;;;;305.17;91.40;;;;;;;-144.73;100.00;54719.69;4962404;28;20058;-75
2023/12/07 04:49:18;;;;;;;252.80;81.00;;;;;;;-144.73;100.00;54752.53;4959217;28;20039;-74
2023/12/07 04:51:46;;;;;;;270.85;86.50;;;;;;;-144.73;100.00;54785.38;4963641;28;20039;-75
2023/12/07 04:54:14;;;;;;;288.83;89.20;;;;;;;-144.73;100.00;54762.81;4959075;28;20081;-75
2023/12/07 04:56:42;;;;;;;280.35;88.60;;;;;;;-144.73;100.00;54756.66;4965043;28;20047;-75
2023/12/07 04:59:09;;;;;;;325.05;98.53;;;;;;;-144.73;100.00;54732.00;4957308;28;20198;-75
2023/12/07 05:01:41;;;;;;;267.33;84.47;;;;;;;-144.73;100.00;54768.97;4960428;28;20043;-76
2023/12/07 05:04:14;;;;;;;;;;;;;;;-144.73;100.00;54758.69;4960366;28;20082;-76
2023/12/07 05:06:39;;;;;;;279.67;87.78;;;;;;;-144.73;100.00;54690.97;4963308;28;19918;-77
2023/12/07 05:09:05;;;;;;;254.52;82.30;;;;;;;-144.73;100.00;54725.84;4952226;28;20211;-77
2023/12/07 05:11:34;;;;;;;269.63;87.53;;;;;;;-144.73;100.00;54715.59;4963822;28;20486;-76
2023/12/07 05:13:59;;;;;;;239.73;81.18;;;;;;;-144.73;100.00;54744.31;4963221;28;20053;-76
2023/12/07 05:16:24;;;;;;;265.02;86.32;;;;;;;-144.73;100.00;54740.22;4958560;28;20494;-76
2023/12/07 05:18:50;;;;;;;248.52;83.03;;;;;;;-144.73;100.00;54715.59;4958118;28;20031;-76
2023/12/07 05:21:15;;;;;;;245.98;84.35;;;;;;;-144.73;100.00;54752.53;4961517;28;20077;-76
2023/12/07 05:23:40;;;;;;;258.55;87.07;;;;;;;-144.73;100.00;54723.81;4957692;28;20034;-76
2023/12/07 05:26:07;;;;;;;269.17;88.47;;;;;;;-144.73;100.00;54707.38;4967508;28;20070;-76
2023/12/07 05:28:33;;;;;;;229.00;79.10;;;;;;;-144.73;100.00;54744.31;4962404;28;20066;-76
2023/12/07 05:30:58;;;;;;;224.63;77.35;;;;;;;-144.73;100.00;54719.69;4955028;28;20130;-76
2023/12/07 05:33:24;;;;;;;262.23;87.70;;;;;;;-144.73;100.00;54723.81;4958628;28;20067;-76
2023/12/07 05:35:50;;;;;;;224.75;79.43;;;;;;;-144.73;100.00;54719.69;4958109;28;20537;-76
2023/12/07 05:38:15;;;;;;;236.55;82.65;;;;;;;-144.73;100.00;54740.22;4961707;28;20023;-76
2023/12/07 05:40:41;;;;;;;220.63;77.05;;;;;;;-144.73;100.00;54740.22;4963994;28;20042;-76
2023/12/07 05:43:07;;;;;;;231.15;79.22;;;;;;;-144.73;100.00;54746.38;4963811;28;20034;-76
2023/12/07 05:45:33;;;;;;;212.38;78.03;;;;;;;-144.73;100.00;54684.78;4960352;28;20526;-76
2023/12/07 05:47:58;;;;;;;220.05;72.35;;;;;;;-144.73;100.00;54686.84;4959477;28;20035;-76
2023/12/07 05:50:24;;;;;;;216.57;76.38;;;;;;;-144.73;100.00;54787.44;4960424;28;20541;-77
2023/12/07 05:52:49;;;;;;;201.55;69.05;;;;;;;-144.73;100.00;54732.00;4962195;28;20030;-76
2023/12/07 05:55:14;;;;;;;230.30;80.60;;;;;;;-144.73;100.00;54756.66;4958051;28;20043;-77
2023/12/07 05:57:40;;;;;;;216.50;76.32;;;;;;;-144.73;100.00;54754.59;4958221;28;20063;-76
2023/12/07 06:00:09;;;;;;;198.68;73.40;;;;;;;-144.73;100.00;54727.91;4961743;28;20042;-77
2023/12/07 06:02:35;;;;;;;229.38;74.97;;;;;;;-144.73;100.00;54727.91;4958620;28;20045;-77
2023/12/07 06:05:03;;;;;;;171.65;65.00;;;;;;;-144.73;100.00;54732.00;4952749;28;20039;-77
2023/12/07 06:07:29;;;;;;;191.00;68.63;;;;;;;-144.73;100.00;54756.66;4953409;28;20049;-77
2023/12/07 06:09:55;;;;;;;198.80;69.63;;;;;;;-144.73;100.00;54725.84;4952696;28;20036;-77
2023/12/07 06:12:21;;;;;;;226.18;75.63;;;;;;;-144.73;100.00;54725.84;4954474;29;20032;-80
2023/12/07 06:14:48;;;;;;;207.23;69.18;;;;;;;-144.73;100.00;54721.75;4966683;28;20061;-78
2023/12/07 06:17:13;;;;;;;199.10;69.80;;;;;;;-144.73;100.00;54756.66;4976582;28;20033;-78
2023/12/07 06:19:39;;;;;;;186.00;64.50;;;;;;;-144.73;100.00;54732.00;4979068;28;20090;-78
2023/12/07 06:22:04;;;;;;;183.18;65.82;;;;;;;-144.73;100.00;54723.81;4980349;28;20034;-78
2023/12/07 06:24:29;;;;;;;181.57;66.85;;;;;;;-144.73;100.00;54686.84;4979160;28;20027;-78
2023/12/07 06:26:55;;;;;;;186.48;68.05;;;;;;;-144.73;100.00;54736.13;4980268;28;20034;-79
2023/12/07 06:29:20;;;;;;;176.68;65.25;;;;;;;-144.73;100.00;54756.66;4981697;28;20034;-78
2023/12/07 06:31:45;;;;;;;207.77;74.97;;;;;;;-144.73;100.00;54779.22;4981943;28;20559;-79
2023/12/07 06:34:11;;;;;;;200.13;71.72;;;;;;;-144.73;100.00;54736.13;4979354;28;20117;-78
2023/12/07 06:36:36;;;;;;;228.27;83.88;;;;;;;-144.73;100.00;54748.44;4980087;28;20067;-79
2023/12/07 06:39:05;;;;;;;195.85;69.07;;;;;;;-144.73;100.00;54723.81;4980049;28;20039;-78
2023/12/07 06:41:31;;;;;;;208.05;69.45;;;;;;;-144.73;100.00;54695.06;4979329;28;20039;-79
2023/12/07 06:43:56;;;;;;;189.93;67.25;;;;;;;-144.73;100.00;54723.81;4980355;28;20033;-79
2023/12/07 06:46:22;;;;;;;207.50;71.60;;;;;;;-144.73;100.00;54707.38;4980102;28;20046;-79
2023/12/07 06:48:47;;;;;;;207.10;70.47;;;;;;;-144.73;100.00;54723.81;4983065;28;20292;-79
2023/12/07 06:51:14;;;;;;;229.88;76.93;;;;;;;-144.73;100.00;54773.06;4980836;28;20046;-80
2023/12/07 06:53:40;;;;;;;216.70;72.90;;;;;;;-144.73;100.00;54742.28;4982107;28;20006;-79
2023/12/07 06:56:07;;;;;;;208.60;72.35;;;;;;;-144.73;100.00;54711.47;4980419;28;20035;-80
2023/12/07 06:58:32;;;;;;;190.05;67.88;;;;;;;-144.73;100.00;54711.47;4980429;28;20049;-79
2023/12/07 07:00:58;;;;;;;193.75;68.55;;;;;;;-144.73;100.00;54721.75;4979164;28;20035;-79
2023/12/07 07:03:24;;;;;;;196.50;66.75;;;;;;;-144.73;100.00;54719.69;4980139;28;20103;-79
2023/12/07 07:05:50;;;;;;;204.35;72.25;;;;;;;-144.73;100.00;54736.13;4979730;28;20035;-79
2023/12/07 07:08:15;;;;;;;212.27;73.15;;;;;;;-144.73;100.00;54748.44;4980145;28;20091;-79
2023/12/07 07:10:40;;;;;;;189.68;68.22;;;;;;;-144.73;100.00;54727.91;4979438;28;20062;-79
2023/12/07 07:13:06;;;;;;;217.05;71.70;;;;;;;-144.73;100.00;54723.81;4980208;28;20026;-79
2023/12/07 07:15:34;;;;;;;205.45;71.65;;;;;;;-144.73;100.00;54719.69;4978622;28;20031;-79
2023/12/07 07:18:01;;;;;;;191.05;70.40;;;;;;;-144.73;100.00;54736.13;4978817;28;20054;-79
2023/12/07 07:20:26;;;;;;;209.90;73.75;;;;;;;-144.73;100.00;54711.47;4978151;28;20045;-79
2023/12/07 07:22:52;;;;;;;197.05;68.82;;;;;;;-144.73;100.00;54719.69;4978774;28;20023;-79
2023/12/07 07:25:19;;;;;;;195.95;68.40;;;;;;;-144.73;100.00;54756.66;4977723;28;20095;-79
2023/12/07 07:27:46;;;;;;;187.85;67.32;;;;;;;-144.73;100.00;54701.22;4978976;28;20097;-79
2023/12/07 07:30:14;;;;;;;176.20;64.43;;;;;;;-144.73;100.00;54676.59;4981043;28;20035;-80
2023/12/07 07:32:42;;;;;;;205.43;69.97;;;;;;;-144.73;100.00;54746.38;4982491;28;20034;-79
2023/12/07 07:35:08;;;;;;;194.30;69.18;;;;;;;-144.73;100.00;54723.81;4980075;28;20039;-79
2023/12/07 07:37:34;;;;;;;219.57;78.53;;;;;;;-144.73;100.00;54727.91;4980299;28;20022;-79
2023/12/07 07:40:06;;;;;;;213.02;75.38;;;;;;;-144.73;100.00;54727.91;4980021;28;20138;-79
2023/12/07 07:42:38;;;;;;;238.45;79.90;;;;;;;-144.73;100.00;54709.44;4981529;28;20033;-79
2023/12/07 07:45:05;;;;;;;207.90;70.47;;;;;;;-144.73;100.00;54736.13;4968902;28;20114;-73
2023/12/07 07:47:30;;;;;;;212.40;75.68;;;;;;;-144.73;100.00;54764.84;4972234;28;20019;-70
2023/12/07 07:49:58;;;;;;;224.07;78.95;;;;;;;-144.73;100.00;54721.75;4973697;28;20031;-71
2023/12/07 07:52:23;;;;;;;205.27;73.85;;;;;;;-144.73;100.00;54746.38;4974070;28;20022;-70
2023/12/07 07:54:49;;;;;;;237.10;80.20;;;;;;;-144.73;100.00;54703.28;4964930;28;20115;-71
2023/12/07 07:57:14;;;;;;;206.77;71.45;;;;;;;-144.73;100.00;54736.13;4955249;29;20483;-70
2023/12/07 07:59:39;;;;;;;206.68;72.15;;;;;;;-144.73;100.00;54736.13;4960988;28;20086;-70
2023/12/07 08:02:04;;;;;;;230.73;77.63;;;;;;;-144.73;100.00;54711.47;4971060;28;20099;-71
2023/12/07 08:04:30;;;;;;;227.05;77.93;;;;;;;-144.73;100.00;54764.84;4954012;28;20038;-71
2023/12/07 08:06:55;;;;;;;240.65;80.38;;;;;;;-144.73;100.00;54748.44;4968409;28;20038;-70
2023/12/07 08:09:20;;;;;;;241.05;84.55;;;;;;;-144.73;100.00;54707.38;4962188;28;20030;-70
2023/12/07 08:11:46;;;;;;;221.60;77.28;;;;;;;-144.73;100.00;54750.50;4973237;28;20035;-70
2023/12/07 08:14:11;;;;;;;228.52;79.95;;;;;;;-144.73;100.00;54760.75;4965149;28;20114;-71
2023/12/07 08:16:36;;;;;;;236.88;84.45;;;;;;;-144.73;100.00;54707.38;4960555;28;20038;-70
2023/12/07 08:19:02;;;;;;;225.38;79.47;;;;;;;-144.73;100.00;54719.69;4960286;28;20046;-67
2023/12/07 08:21:29;;;;;;;218.27;76.82;;;;;;;-144.73;100.00;54736.13;4959045;28;20122;-71
2023/12/07 08:23:54;;;;;;;251.43;87.30;;;;;;;-144.73;100.00;54719.69;4951587;28;20026;-71
2023/12/07 08:26:20;;;;;;;205.27;76.15;;;;;;;-144.73;100.00;54695.06;4963422;28;20094;-71
2023/12/07 08:28:46;;;;;;;196.55;73.22;;;;;;;-144.73;100.00;54727.91;4955378;28;20031;-70
2023/12/07 08:31:11;;;;;;;189.15;73.20;;;;;;;-144.73;100.00;54723.81;4966654;28;20074;-70
2023/12/07 08:33:39;;;;;;;202.02;74.05;;;;;;;-144.73;100.00;54756.66;4966059;28;20117;-69
2023/12/07 08:36:05;;;;;;;227.90;83.78;;;;;;;-144.73;100.00;54729.97;4963492;28;20034;-70
2023/12/07 08:38:31;;;;;;;213.75;78.10;;;;;;;-144.73;100.00;54736.13;4970569;28;20030;-69
2023/12/07 08:40:57;;;;;;;202.82;76.28;;;;;;;-144.73;100.00;54736.13;4954483;28;20031;-70
2023/12/07 08:43:24;;;;;;;215.30;77.45;;;;;;;-144.73;100.00;54740.22;4951612;28;20035;-70
2023/12/07 08:45:52;;;;;;;184.02;69.70;;;;;;;-144.73;100.00;54723.81;4950469;28;20047;-70
2023/12/07 08:48:19;;;;;;;235.15;82.80;;;;;;;-144.73;100.00;54768.97;4957293;28;20038;-69
2023/12/07 08:50:44;;;;;;;238.85;81.80;;;;;;;-144.73;100.00;54768.97;4955478;28;20043;-70
2023/12/07 08:53:10;;;;;;;210.00;77.50;;;;;;;-144.73;100.00;54740.22;4970635;28;20035;-70
2023/12/07 08:55:35;;;;;;;216.27;74.95;;;;;;;-144.73;100.00;54768.97;4955210;28;20098;-70
2023/12/07 08:58:00;;;;;;;212.43;75.93;;;;;;;-144.73;100.00;54744.31;4963666;28;20023;-70
2023/12/07 09:00:26;;;;;;;190.60;71.20;;;;;;;-144.73;100.00;54746.38;4967834;28;20494;-71
2023/12/07 09:02:52;;;;;;;208.70;76.32;;;;;;;-144.73;100.00;54744.31;4971650;28;20038;-70
2023/12/07 09:05:17;;;;;;;233.38;80.45;;;;;;;-144.73;100.00;54707.38;4970155;28;20059;-71
2023/12/07 09:07:43;;;;;;;177.43;67.40;;;;;;;-144.73;100.00;54686.84;4967773;28;20082;-71
2023/12/07 09:10:09;;;;;;;187.32;72.10;;;;;;;-144.73;100.00;54727.91;4951090;28;20031;-69
2023/12/07 09:12:35;;;;;;;184.73;71.63;;;;;;;-144.73;100.00;54752.53;4962298;28;20023;-72
2023/12/07 09:15:02;;;;;;;206.80;74.05;;;;;;;-144.73;100.00;54725.84;4965083;28;20027;-69
2023/12/07 09:17:27;;;;;;;168.35;70.82;;;;;;;-144.73;100.00;54727.91;4960887;28;20054;-71
2023/12/07 09:19:53;;;;;;;183.38;72.25;;;;;;;-144.73;100.00;54719.69;4965126;28;20073;-71
2023/12/07 09:22:20;;;;;;;173.43;67.75;;;;;;;-144.73;100.00;54736.13;4951346;29;20027;-70
2023/12/07 09:24:46;;;;;;;178.18;69.13;;;;;;;-144.73;100.00;54732.00;4952631;28;20023;-70
2023/12/07 09:27:13;;;;;;;189.65;69.40;;;;;;;-144.73;100.00;54723.81;4965510;28;20022;-71
2023/12/07 09:29:38;;;;;;;171.27;70.43;;;;;;;-144.73;100.00;54740.22;4962314;28;20507;-70
2023/12/07 09:32:04;;;;;;;182.18;72.43;;;;;;;-144.73;100.00;54754.59;4970715;28;20030;-70
2023/12/07 09:34:29;;;;;;;184.05;69.93;;;;;;;-144.73;100.00;54715.59;4969742;28;20035;-71
2023/12/07 09:37:10;;;;;;;179.18;71.90;;;;;;;-144.73;100.00;54781.28;4972173;28;20050;-71
2023/12/07 09:39:36;;;;;;;156.68;67.13;;;;;;;-144.73;100.00;54715.59;4964471;28;20049;-71
2023/12/07 09:42:02;;;;;;;172.60;70.97;;;;;;;-144.73;100.00;54744.31;4951729;29;20019;-70
2023/12/07 09:44:28;;;;;;;193.18;74.70;;;;;;;-144.73;100.00;54727.91;4953450;29;20075;-69
2023/12/07 09:46:54;;;;;;;180.98;71.93;;;;;;;-144.73;100.00;54729.97;4965170;28;20126;-70
2023/12/07 09:49:20;;;;;;;195.32;76.65;;;;;;;-144.73;100.00;54732.00;4971127;28;20050;-72
2023/12/07 09:51:46;;;;;;;213.43;83.03;;;;;;;-144.73;100.00;54707.38;4953367;28;20041;-70
2023/12/07 09:54:12;;;;;;;182.25;71.28;;;;;;;-144.73;100.00;54746.38;4955239;29;20031;-71
2023/12/07 09:56:38;;;;;;;214.55;78.13;;;;;;;-144.73;100.00;54727.91;4963803;28;20023;-69
2023/12/07 09:59:05;;;;;;;193.25;78.00;;;;;;;-144.73;100.00;54752.53;4959429;28;20478;-70
2023/12/07 10:01:31;;;;;;;185.20;74.30;;;;;;;-144.73;100.00;54688.91;4954677;28;20031;-70
2023/12/07 10:04:25;;;;;;;178.88;72.25;;;;;;;-144.73;100.00;54752.53;4968028;28;20031;-69
2023/12/07 10:06:52;;;;;;;182.23;75.03;;;;;;;-144.73;100.00;54732.00;4971505;28;20035;-71
2023/12/07 10:09:24;;;;;;;195.00;77.18;;;;;;;-144.73;100.00;54732.00;4958388;28;20031;-72
2023/12/07 10:11:49;;;;;;;203.15;80.57;;;;;;;-144.73;100.00;54727.91;4966229;28;20041;-70
2023/12/07 10:14:15;;;;;;;225.00;85.57;;;;;;;-144.73;100.00;54711.47;4974893;28;20027;-70
2023/12/07 10:16:57;;;;;;;185.20;77.43;;;;;;;-144.73;100.00;54756.66;4963392;28;20040;-70
2023/12/07 10:19:24;;;;;;;206.73;79.60;;;;;;;-144.73;100.00;54723.81;4954477;29;20031;-71
2023/12/07 10:21:50;;;;;;;207.55;84.13;;;;;;;-144.73;100.00;54736.13;4955713;28;20074;-69
2023/12/07 10:24:20;;;;;;;231.43;85.03;;;;;;;-144.73;100.00;54711.47;4961790;28;20019;-71
2023/12/07 10:26:47;;;;;;;223.70;88.03;;;;;;;-144.73;100.00;54715.59;4964496;28;20041;-70
2023/12/07 10:29:12;;;;;;;219.63;84.30;;;;;;;-144.73;100.00;54742.28;4975088;28;20042;-69
2023/12/07 10:31:38;;;;;;;206.52;79.85;;;;;;;-144.73;100.00;54723.81;4960919;28;20040;-70
2023/12/07 10:34:07;;;;;;;216.30;83.45;;;;;;;-144.73;100.00;54736.13;4960280;28;20109;-71
2023/12/07 10:36:33;;;;;;;200.38;81.35;;;;;;;-144.73;100.00;54736.13;4956326;28;20059;-70
2023/12/07 10:38:58;;;;;;;237.70;91.53;;;;;;;-144.73;100.00;54711.47;4963490;28;20513;-70
2023/12/07 10:41:25;;;;;;;219.80;84.32;;;;;;;-144.73;100.00;54719.69;4956490;28;20035;-69
2023/12/07 10:43:59;;;;;;;201.93;82.18;;;;;;;-144.73;100.00;54756.66;4964792;28;20587;-70